Time;durP1;ratioP1;P1;durP2;ratioP2;P2;SDS_P1;SDS_P2;PMS_P1;PMS_P2;Temp;Humidity;BMP_temperature;BMP_pressure;BME280_temperature;BME280_humidity;BME280_pressure;Samples;Min_cycle;Max_cycle;Signal;HPM_P1;HPM_P2
2022/10/02 00:02:00;;;;;;;35.55;6.75;;;;;;;11.66;100.00;100708.22;5076426;28;20030;-74
2022/10/02 00:04:35;;;;;;;36.20;6.10;;;;;;;11.55;100.00;100705.88;5069692;28;20028;-74
2022/10/02 00:07:06;;;;;;;40.17;6.93;;;;;;;11.64;100.00;100704.84;5076547;28;20020;-73
2022/10/02 00:09:39;;;;;;;36.15;6.20;;;;;;;11.66;100.00;100694.66;5078157;28;20498;-74
2022/10/02 00:12:10;;;;;;;29.73;4.55;;;;;;;11.62;100.00;100696.06;5076618;28;20012;-73
2022/10/02 00:14:38;;;;;;;24.00;5.22;;;;;;;11.72;100.00;100716.72;5093910;28;20055;-73
2022/10/02 00:17:08;;;;;;;29.73;4.75;;;;;;;11.85;100.00;100701.66;5076098;28;20020;-74
2022/10/02 00:19:33;;;;;;;28.42;4.68;;;;;;;11.67;100.00;100709.94;5094305;28;20077;-73
2022/10/02 00:22:08;;;;;;;33.78;6.30;;;;;;;11.91;100.00;100722.66;5075764;28;20028;-73
2022/10/02 00:24:48;;;;;;;24.23;3.50;;;;;;;11.88;100.00;100705.91;5076067;28;20020;-73
2022/10/02 00:27:35;;;;;;;29.42;3.90;;;;;;;11.98;100.00;100711.13;5076116;28;20047;-73
2022/10/02 00:30:03;;;;;;;29.30;4.43;;;;;;;11.79;100.00;100717.72;5075676;28;20032;-74
2022/10/02 00:32:57;;;;;;;16.35;3.55;;;;;;;11.73;100.00;100718.41;5075116;28;20017;-74
2022/10/02 00:35:41;;;;;;;29.88;4.15;;;;;;;11.76;100.00;100713.50;5069444;28;20039;-74
2022/10/02 00:38:43;;;;;;;36.25;5.13;;;;;;;11.68;100.00;100727.91;5075578;28;20112;-74
2022/10/02 00:41:53;;;;;;;32.40;4.53;;;;;;;11.79;100.00;100712.31;5075348;28;20187;-73
2022/10/02 00:44:51;;;;;;;19.13;4.05;;;;;;;11.86;100.00;100721.47;5078832;28;20043;-73
2022/10/02 00:47:32;;;;;;;31.20;4.55;;;;;;;11.80;100.00;100724.84;5061266;28;20431;-73
2022/10/02 00:50:23;;;;;;;35.67;4.60;;;;;;;11.69;100.00;100737.75;5075630;28;20092;-73
2022/10/02 00:53:02;;;;;;;29.23;4.80;;;;;;;11.85;100.00;100727.94;5075529;28;20024;-75
2022/10/02 00:55:45;;;;;;;26.50;4.82;;;;;;;11.67;100.00;100720.81;5075188;28;20055;-75
2022/10/02 00:58:17;;;;;;;33.42;5.30;;;;;;;11.62;100.00;100717.75;5074756;28;20016;-75
2022/10/02 01:01:05;;;;;;;23.83;4.57;;;;;;;11.72;100.00;100730.28;5075380;28;20070;-74
2022/10/02 01:03:39;;;;;;;21.83;4.18;;;;;;;11.80;100.00;100727.56;5068959;28;20028;-74
2022/10/02 01:06:06;;;;;;;31.55;4.30;;;;;;;11.76;100.00;100735.19;5075280;28;20046;-74
2022/10/02 01:08:33;;;;;;;44.25;5.18;;;;;;;11.73;100.00;100738.25;5092823;28;20073;-74
2022/10/02 01:10:58;;;;;;;30.23;4.50;;;;;;;11.90;100.00;100739.13;5093154;28;20431;-74
2022/10/02 01:13:24;;;;;;;39.72;4.68;;;;;;;11.88;100.00;100738.47;5092258;28;20020;-74
2022/10/02 01:15:55;;;;;;;40.45;5.60;;;;;;;11.80;100.00;100746.53;5075225;28;20027;-74
2022/10/02 01:18:21;;;;;;;;;;;;;;;11.99;100.00;100756.25;5075551;28;20020;-74
2022/10/02 01:20:50;;;;;;;26.52;4.35;;;;;;;11.94;100.00;100759.50;5075063;28;19973;-74
2022/10/02 01:23:25;;;;;;;31.08;5.15;;;;;;;11.84;100.00;100766.94;5074254;28;20082;-74
2022/10/02 01:25:50;;;;;;;30.73;4.40;;;;;;;11.79;100.00;100788.25;5092525;28;20032;-74
2022/10/02 01:28:16;;;;;;;37.33;5.10;;;;;;;11.87;100.00;100791.03;5074994;28;20424;-73
2022/10/02 01:30:47;;;;;;;27.58;4.20;;;;;;;11.96;100.00;100790.00;5066669;28;20035;-73
2022/10/02 01:33:13;;;;;;;22.45;4.75;;;;;;;11.90;100.00;100786.09;5092171;28;20016;-73
2022/10/02 01:35:39;;;;;;;33.13;4.47;;;;;;;12.07;100.00;100796.97;5092615;28;20506;-73
2022/10/02 01:38:08;;;;;;;33.83;5.55;;;;;;;11.84;100.00;100818.47;5074271;28;20024;-73
2022/10/02 01:40:38;;;;;;;41.38;5.45;;;;;;;11.95;100.00;100815.44;5074724;28;20020;-73
2022/10/02 01:43:11;;;;;;;35.72;6.13;;;;;;;11.73;100.00;100822.31;5073988;28;20035;-73
2022/10/02 01:45:51;;;;;;;38.65;6.60;;;;;;;11.68;100.00;100825.56;5074783;28;20016;-73
2022/10/02 01:48:39;;;;;;;34.53;5.50;;;;;;;11.69;100.00;100805.53;5066838;28;20051;-73
2022/10/02 01:51:45;;;;;;;37.22;5.93;;;;;;;11.86;100.00;100806.44;5071640;28;20012;-73
2022/10/02 01:54:10;;;;;;;28.98;5.80;;;;;;;11.73;100.00;100822.31;5029977;28;20498;-73
2022/10/02 01:56:54;;;;;;;27.17;5.65;;;;;;;11.83;100.00;100811.34;5068163;28;20063;-73
2022/10/02 01:59:30;;;;;;;32.05;4.70;;;;;;;11.94;100.00;100808.31;5066789;28;20101;-73
2022/10/02 02:02:25;;;;;;;33.40;5.55;;;;;;;11.85;100.00;100814.75;5073781;28;20032;-73
2022/10/02 02:04:59;;;;;;;28.65;5.22;;;;;;;11.85;100.00;100820.16;5073681;28;20047;-73
2022/10/02 02:07:53;;;;;;;33.63;5.72;;;;;;;11.88;100.00;100822.56;5074317;28;20043;-73
2022/10/02 02:10:27;;;;;;;32.03;5.38;;;;;;;11.92;100.00;100829.34;5091093;28;20027;-73
2022/10/02 02:13:05;;;;;;;38.40;5.03;;;;;;;11.68;100.00;100812.00;5091845;28;20027;-73
2022/10/02 02:15:50;;;;;;;36.10;6.22;;;;;;;11.67;100.00;100823.88;5074098;28;20028;-73
2022/10/02 02:18:30;;;;;;;27.13;5.60;;;;;;;11.55;100.00;100825.19;5089113;28;20035;-73
2022/10/02 02:21:03;;;;;;;31.05;5.50;;;;;;;11.54;100.00;100812.66;5092028;28;20088;-73
2022/10/02 02:23:31;;;;;;;31.80;5.53;;;;;;;11.49;100.00;100815.00;5091587;28;20503;-73
2022/10/02 02:26:02;;;;;;;29.25;5.80;;;;;;;11.58;100.00;100824.00;5091470;28;20020;-72
2022/10/02 02:28:31;;;;;;;30.23;5.85;;;;;;;11.63;100.00;100817.06;5073142;28;20024;-72
2022/10/02 02:30:59;;;;;;;27.50;5.50;;;;;;;11.58;100.00;100808.56;5073459;28;20043;-72
2022/10/02 02:33:33;;;;;;;25.55;5.43;;;;;;;11.57;100.00;100817.72;5073420;28;20058;-72
2022/10/02 02:36:04;;;;;;;24.30;5.22;;;;;;;11.51;100.00;100812.13;5091240;28;20023;-72
2022/10/02 02:38:35;;;;;;;28.98;5.60;;;;;;;11.38;100.00;100801.75;5073295;28;20131;-72
2022/10/02 02:41:04;;;;;;;33.55;7.25;;;;;;;11.34;100.00;100816.63;5091135;28;20100;-72
2022/10/02 02:43:36;;;;;;;32.75;5.25;;;;;;;11.25;100.00;100817.63;5077229;28;20021;-72
2022/10/02 02:46:08;;;;;;;37.28;5.53;;;;;;;11.20;100.00;100819.97;5073143;28;20038;-73
2022/10/02 02:48:40;;;;;;;29.02;4.65;;;;;;;11.32;100.00;100819.50;5091578;28;20115;-72
2022/10/02 02:51:12;;;;;;;33.25;5.38;;;;;;;11.29;100.00;100819.00;5090852;28;20024;-72
2022/10/02 02:53:47;;;;;;;20.75;4.38;;;;;;;11.48;100.00;100797.03;5071484;28;20016;-72
2022/10/02 02:56:16;;;;;;;34.63;5.72;;;;;;;11.53;100.00;100800.09;5090942;28;20020;-72
2022/10/02 02:58:47;;;;;;;34.92;5.60;;;;;;;11.62;100.00;100809.09;5068992;28;20041;-72
2022/10/02 03:01:13;;;;;;;34.30;5.22;;;;;;;11.80;100.00;100806.22;5089532;28;20024;-72
2022/10/02 03:03:38;;;;;;;30.83;5.57;;;;;;;11.68;100.00;100820.13;5072474;28;20024;-72
2022/10/02 03:06:17;;;;;;;19.35;4.50;;;;;;;11.76;100.00;100835.56;5072786;28;20059;-72
2022/10/02 03:08:44;;;;;;;26.90;5.00;;;;;;;11.80;100.00;100826.09;5072647;28;20046;-72
2022/10/02 03:11:12;;;;;;;25.88;4.85;;;;;;;11.74;100.00;100812.34;5090847;28;20066;-73
2022/10/02 03:13:37;;;;;;;19.48;3.65;;;;;;;11.78;100.00;100808.25;5090977;28;20460;-71
2022/10/02 03:16:24;;;;;;;30.77;3.90;;;;;;;11.45;100.00;100797.34;5072392;28;20054;-72
2022/10/02 03:19:02;;;;;;;26.90;4.45;;;;;;;11.52;100.00;100794.84;5074088;28;20038;-72
2022/10/02 03:21:53;;;;;;;22.38;3.75;;;;;;;11.64;100.00;100797.06;5072765;28;20081;-72
2022/10/02 03:24:25;;;;;;;33.88;4.75;;;;;;;11.60;100.00;100805.69;5090271;28;20054;-72
2022/10/02 03:27:07;;;;;;;20.42;3.55;;;;;;;11.60;100.00;100811.09;5087628;28;20134;-72
2022/10/02 03:29:59;;;;;;;29.42;4.43;;;;;;;11.68;100.00;100803.84;5061586;28;20123;-72
2022/10/02 03:32:26;;;;;;;19.55;3.97;;;;;;;11.71;100.00;100796.38;5065932;28;20066;-72
2022/10/02 03:34:52;;;;;;;28.42;4.28;;;;;;;11.83;100.00;100819.50;5073340;28;20047;-72
2022/10/02 03:37:18;;;;;;;25.65;4.35;;;;;;;11.86;100.00;100811.00;5072759;28;20082;-72
2022/10/02 03:39:44;;;;;;;28.27;4.85;;;;;;;11.90;100.00;100812.38;5072648;28;20082;-72
2022/10/02 03:42:12;;;;;;;25.05;4.57;;;;;;;11.91;100.00;100814.06;5090188;28;20020;-72
2022/10/02 03:44:37;;;;;;;28.77;5.18;;;;;;;11.85;100.00;100814.75;5072165;28;20036;-72
2022/10/02 03:47:03;;;;;;;21.83;3.97;;;;;;;12.05;100.00;100826.97;5072400;28;20030;-72
2022/10/02 03:49:28;;;;;;;30.73;4.53;;;;;;;12.11;100.00;100815.44;5071295;28;20384;-72
2022/10/02 03:51:53;;;;;;;21.77;5.38;;;;;;;11.85;100.00;100820.16;5071334;28;20028;-72
2022/10/02 03:54:20;;;;;;;22.42;4.65;;;;;;;11.89;100.00;100805.25;5071143;28;20038;-72
2022/10/02 03:56:57;;;;;;;21.10;4.22;;;;;;;12.01;100.00;100808.50;5072496;28;20031;-72
2022/10/02 03:59:50;;;;;;;24.52;4.57;;;;;;;11.79;100.00;100804.53;5083175;28;20024;-72
2022/10/02 04:02:25;;;;;;;28.63;5.03;;;;;;;11.86;100.00;100816.44;5090559;28;20039;-72
2022/10/02 04:05:00;;;;;;;26.50;5.45;;;;;;;11.75;100.00;100808.63;5090189;28;20031;-72
2022/10/02 04:07:38;;;;;;;22.67;4.22;;;;;;;11.76;100.00;100811.16;5072165;28;20032;-72
2022/10/02 04:10:12;;;;;;;22.80;5.10;;;;;;;11.35;100.00;100823.78;5090622;28;20031;-72
2022/10/02 04:12:44;;;;;;;19.05;4.75;;;;;;;11.29;100.00;100814.44;5089695;28;20035;-72
2022/10/02 04:15:23;;;;;;;21.40;5.00;;;;;;;11.50;100.00;100816.69;5077920;22;20033;-76
2022/10/02 04:18:02;;;;;;;18.52;4.38;;;;;;;11.50;100.00;100816.69;5056342;28;20029;-77
2022/10/02 04:20:34;;;;;;;23.92;6.13;;;;;;;11.41;100.00;100813.13;5064615;28;20016;-76
2022/10/02 04:23:13;;;;;;;34.50;5.68;;;;;;;11.18;100.00;100822.00;5051391;28;20025;-77
2022/10/02 04:25:46;;;;;;;39.10;7.60;;;;;;;11.27;100.00;100826.44;5060801;28;20030;-76
2022/10/02 04:28:16;;;;;;;27.15;4.70;;;;;;;11.12;100.00;100824.34;5059611;28;20017;-76
2022/10/02 04:30:41;;;;;;;23.15;5.35;;;;;;;11.32;100.00;100824.09;5067407;28;20024;-76
2022/10/02 04:33:17;;;;;;;25.60;4.55;;;;;;;11.21;100.00;100821.66;5058559;28;20028;-76
2022/10/02 04:35:51;;;;;;;22.02;5.78;;;;;;;11.25;100.00;100818.47;5053636;28;20025;-75
2022/10/02 04:38:46;;;;;;;28.17;4.82;;;;;;;11.32;100.00;100821.38;5061578;28;20652;-76
2022/10/02 04:41:20;;;;;;;22.98;5.32;;;;;;;11.47;100.00;100819.72;5070017;28;20024;-75
2022/10/02 04:44:13;;;;;;;22.63;4.97;;;;;;;11.20;100.00;100819.97;5065238;28;20036;-75
2022/10/02 04:47:16;;;;;;;20.65;5.15;;;;;;;10.97;100.00;100815.16;5052921;28;20037;-75
2022/10/02 04:50:09;;;;;;;25.17;4.90;;;;;;;11.03;100.00;100819.91;5058484;28;20074;-75
2022/10/02 04:52:50;;;;;;;26.50;5.45;;;;;;;10.94;100.00;100815.47;5062202;28;20075;-75
2022/10/02 04:55:24;;;;;;;25.13;4.60;;;;;;;11.01;100.00;100821.94;5068950;28;20068;-75
2022/10/02 04:57:55;;;;;;;28.05;6.28;;;;;;;11.14;100.00;100833.16;5057983;28;20036;-75
2022/10/02 05:00:23;;;;;;;28.25;5.28;;;;;;;11.11;100.00;100830.78;5058903;28;20037;-75
2022/10/02 05:02:52;;;;;;;18.35;5.35;;;;;;;11.14;100.00;100838.59;5051832;28;20024;-75
2022/10/02 05:05:28;;;;;;;27.30;5.72;;;;;;;11.10;100.00;100831.81;5065304;28;20023;-75
2022/10/02 05:08:10;;;;;;;29.70;5.60;;;;;;;11.21;100.00;100827.09;5070475;28;20078;-76
2022/10/02 05:11:00;;;;;;;27.48;4.93;;;;;;;11.17;100.00;100826.59;5067400;28;20036;-75
2022/10/02 05:13:51;;;;;;;31.73;5.82;;;;;;;11.08;100.00;100823.00;5054555;28;20029;-75
2022/10/02 05:16:46;;;;;;;28.83;5.70;;;;;;;11.19;100.00;100824.56;5055017;28;20025;-75
2022/10/02 05:19:35;;;;;;;26.77;5.07;;;;;;;11.33;100.00;100828.50;5070316;28;20024;-76
2022/10/02 05:22:21;;;;;;;32.92;5.75;;;;;;;11.13;100.00;100831.47;5072035;28;20039;-76
2022/10/02 05:25:07;;;;;;;22.55;5.72;;;;;;;11.35;100.00;100829.19;5055673;28;20021;-76
2022/10/02 05:27:57;;;;;;;29.27;5.30;;;;;;;11.27;100.00;100834.56;5083358;28;20032;-76
2022/10/02 05:30:23;;;;;;;31.67;5.50;;;;;;;11.34;100.00;100839.16;5068421;28;20024;-76
2022/10/02 05:33:15;;;;;;;24.50;6.05;;;;;;;11.39;100.00;100841.38;5061142;28;20025;-76
2022/10/02 05:36:22;;;;;;;17.85;5.63;;;;;;;11.17;100.00;100842.00;5068171;28;20024;-76
2022/10/02 05:39:01;;;;;;;25.67;7.45;;;;;;;11.16;100.00;100837.59;5067512;28;20443;-76
2022/10/02 05:41:42;;;;;;;31.80;7.60;;;;;;;11.26;100.00;100841.00;5064318;28;20024;-75
2022/10/02 05:44:19;;;;;;;35.45;7.55;;;;;;;11.21;100.00;100843.34;5061976;28;20123;-76
2022/10/02 05:47:11;;;;;;;35.92;7.05;;;;;;;11.02;100.00;100839.03;5060041;28;20477;-75
2022/10/02 05:49:42;;;;;;;34.92;7.45;;;;;;;11.11;100.00;100848.91;5069464;28;20016;-75
2022/10/02 05:52:22;;;;;;;37.67;8.77;;;;;;;11.11;100.00;100860.59;5055384;28;20132;-75
2022/10/02 05:55:21;;;;;;;47.50;8.88;;;;;;;11.29;100.00;100851.53;5061834;28;20029;-75
2022/10/02 05:57:56;;;;;;;35.67;8.93;;;;;;;11.13;100.00;100850.44;5063649;28;20096;-75
2022/10/02 06:00:30;;;;;;;52.42;8.63;;;;;;;11.30;100.00;100853.22;5065405;28;20021;-75
2022/10/02 06:03:18;;;;;;;38.50;7.72;;;;;;;11.38;100.00;100872.22;5068965;28;20082;-75
2022/10/02 06:05:44;;;;;;;44.38;8.40;;;;;;;11.32;100.00;100879.16;5064329;28;20056;-74
2022/10/02 06:08:15;;;;;;;45.28;9.30;;;;;;;11.26;100.00;100884.38;5065088;28;20057;-74
2022/10/02 06:11:05;;;;;;;38.30;7.45;;;;;;;11.40;100.00;100886.47;5060807;28;20025;-74
2022/10/02 06:13:49;;;;;;;29.70;7.05;;;;;;;11.34;100.00;100876.25;5056606;28;20032;-74
2022/10/02 06:16:29;;;;;;;44.45;9.38;;;;;;;11.29;100.00;100884.06;5077173;28;20024;-75
2022/10/02 06:19:06;;;;;;;27.77;7.25;;;;;;;11.27;100.00;100881.50;5059512;28;20094;-74
2022/10/02 06:21:36;;;;;;;45.53;8.20;;;;;;;11.27;100.00;100869.81;5059769;28;20489;-74
2022/10/02 06:24:10;;;;;;;21.40;6.32;;;;;;;11.28;100.00;100860.66;5060201;28;20028;-74
2022/10/02 06:26:44;;;;;;;26.73;6.47;;;;;;;11.36;100.00;100874.25;5059507;28;20024;-74
2022/10/02 06:29:42;;;;;;;23.23;5.00;;;;;;;11.49;100.00;100874.66;5056399;28;20070;-74
2022/10/02 06:32:18;;;;;;;22.40;5.25;;;;;;;11.55;100.00;100894.84;5061765;28;20037;-74
2022/10/02 06:34:44;;;;;;;24.58;4.90;;;;;;;11.64;100.00;100880.28;5067959;28;20048;-74
2022/10/02 06:37:26;;;;;;;23.77;4.53;;;;;;;11.56;100.00;100881.13;5053865;28;20101;-74
2022/10/02 06:40:04;;;;;;;19.52;3.83;;;;;;;11.68;100.00;100890.66;5059087;28;20078;-74
2022/10/02 06:42:57;;;;;;;18.10;4.65;;;;;;;11.62;100.00;100879.59;5058717;28;20025;-74
2022/10/02 06:45:34;;;;;;;15.90;3.40;;;;;;;11.70;100.00;100887.75;5055616;28;20032;-74
2022/10/02 06:48:29;;;;;;;20.77;3.30;;;;;;;11.58;100.00;100899.91;5062093;28;20036;-74
2022/10/02 06:51:23;;;;;;;15.48;3.30;;;;;;;11.64;100.00;100904.69;5058302;28;20025;-74
2022/10/02 06:54:07;;;;;;;14.68;3.50;;;;;;;11.65;100.00;100896.38;5057078;28;20120;-74
2022/10/02 06:57:05;;;;;;;14.18;2.70;;;;;;;11.79;100.00;100896.75;5052462;28;20035;-74
2022/10/02 06:59:48;;;;;;;17.48;3.47;;;;;;;12.00;99.10;100883.63;5079025;28;20066;-74
2022/10/02 07:02:32;;;;;;;8.30;2.42;;;;;;;11.88;99.76;100901.25;5065818;28;20075;-75
2022/10/02 07:05:23;;;;;;;12.80;2.75;;;;;;;11.83;99.75;100911.72;5062663;28;20032;-75
2022/10/02 07:08:19;;;;;;;10.13;2.50;;;;;;;11.96;100.00;100917.53;5060503;28;20170;-75
2022/10/02 07:10:51;;;;;;;16.40;2.55;;;;;;;12.06;98.61;100910.09;5059289;28;20029;-74
2022/10/02 07:13:49;;;;;;;20.15;3.22;;;;;;;12.15;99.22;100922.66;5085001;28;20036;-74
2022/10/02 07:16:41;;;;;;;14.00;2.65;;;;;;;12.30;97.71;100919.28;5067166;28;20033;-75
2022/10/02 07:19:34;;;;;;;12.30;2.70;;;;;;;12.25;98.85;100935.22;5053850;28;20025;-75
2022/10/02 07:22:26;;;;;;;18.83;2.67;;;;;;;12.06;99.61;100947.22;5063275;28;20021;-75
2022/10/02 07:25:07;;;;;;;11.80;2.78;;;;;;;12.18;99.68;100952.16;5063001;28;20032;-75
2022/10/02 07:27:49;;;;;;;13.77;3.33;;;;;;;12.34;99.67;100955.94;5063857;28;20033;-74
2022/10/02 07:30:16;;;;;;;19.77;3.15;;;;;;;12.34;99.00;100958.66;5053822;28;20036;-73
2022/10/02 07:33:18;;;;;;;10.65;3.10;;;;;;;12.19;100.00;100964.75;5057487;28;20079;-73
2022/10/02 07:35:57;;;;;;;22.75;3.00;;;;;;;12.37;99.78;100955.59;5069848;28;20033;-74
2022/10/02 07:38:42;;;;;;;14.23;3.45;;;;;;;12.38;100.00;100957.28;5070348;28;20025;-74
2022/10/02 07:41:37;;;;;;;13.20;3.10;;;;;;;12.29;100.00;100950.16;5056413;28;20025;-74
2022/10/02 07:44:33;;;;;;;21.92;4.13;;;;;;;12.13;100.00;100953.72;5065817;28;20111;-74
2022/10/02 07:47:17;;;;;;;19.70;3.70;;;;;;;11.97;100.00;100949.06;5049457;28;20025;-74
2022/10/02 07:49:59;;;;;;;25.60;4.55;;;;;;;12.12;100.00;100958.25;5056168;28;20020;-74
2022/10/02 07:52:37;;;;;;;21.60;4.28;;;;;;;12.09;100.00;100969.47;5064495;28;20024;-75
2022/10/02 07:55:15;;;;;;;21.17;4.18;;;;;;;12.25;100.00;100978.66;5058179;28;20041;-74
2022/10/02 07:57:59;;;;;;;18.42;3.42;;;;;;;12.22;100.00;100975.25;5057441;28;20040;-75
2022/10/02 08:00:30;;;;;;;23.77;4.25;;;;;;;12.29;100.00;100980.03;5076545;28;20477;-74
2022/10/02 08:03:05;;;;;;;19.48;3.97;;;;;;;12.37;100.00;100977.31;5065782;28;20032;-74
2022/10/02 08:05:44;;;;;;;20.70;4.38;;;;;;;12.43;100.00;100987.50;5058976;28;20032;-75
2022/10/02 08:08:28;;;;;;;19.33;3.85;;;;;;;12.66;100.00;100988.56;5059498;28;20535;-74
2022/10/02 08:11:10;;;;;;;20.33;3.22;;;;;;;12.79;100.00;100987.22;5059094;28;20028;-75
2022/10/02 08:13:54;;;;;;;18.20;3.35;;;;;;;12.71;100.00;100991.63;5065966;28;20024;-75
2022/10/02 08:16:25;;;;;;;16.00;3.28;;;;;;;12.35;100.00;100996.50;5067044;28;20037;-74
2022/10/02 08:18:58;;;;;;;22.80;3.50;;;;;;;12.61;100.00;100990.94;5070655;28;20480;-75
2022/10/02 08:21:25;;;;;;;18.75;3.40;;;;;;;12.98;100.00;100993.16;5064949;28;20112;-75
2022/10/02 08:24:03;;;;;;;17.00;3.13;;;;;;;13.51;100.00;100993.59;5061816;28;20059;-75
2022/10/02 08:26:57;;;;;;;18.05;3.28;;;;;;;13.53;100.00;100999.69;5074190;28;20120;-75
2022/10/02 08:29:29;;;;;;;14.43;3.25;;;;;;;13.28;98.39;100994.31;5067352;28;20037;-76
2022/10/02 08:31:55;;;;;;;11.63;3.15;;;;;;;13.14;100.00;100997.72;5064757;28;20024;-74
2022/10/02 08:34:22;;;;;;;23.52;4.50;;;;;;;12.79;100.00;101014.38;5063435;28;20093;-75
2022/10/02 08:37:16;;;;;;;21.90;3.90;;;;;;;12.93;100.00;101032.72;5068854;28;20024;-75
2022/10/02 08:39:44;;;;;;;30.85;4.40;;;;;;;12.60;100.00;101043.56;5059933;28;20047;-77
2022/10/02 08:42:28;;;;;;;32.40;5.05;;;;;;;12.57;100.00;101033.03;5060199;28;20035;-77
2022/10/02 08:45:33;;;;;;;27.10;5.13;;;;;;;12.35;100.00;101036.38;5071245;28;20021;-76
2022/10/02 08:48:22;;;;;;;20.42;4.78;;;;;;;12.46;100.00;101026.06;5071229;28;20024;-76
2022/10/02 08:50:58;;;;;;;25.80;5.57;;;;;;;12.48;100.00;101017.75;5065359;28;20024;-76
2022/10/02 08:53:58;;;;;;;26.92;6.30;;;;;;;12.37;100.00;101026.19;5066715;28;20542;-79
2022/10/02 08:56:52;;;;;;;25.90;5.72;;;;;;;12.42;100.00;101018.41;5061125;28;20032;-77
2022/10/02 08:59:43;;;;;;;26.83;5.25;;;;;;;12.47;100.00;101033.19;5064361;28;20035;-79
2022/10/02 09:02:46;;;;;;;18.20;4.28;;;;;;;12.44;100.00;101021.78;5058500;28;20024;-78
2022/10/02 09:05:55;;;;;;;26.73;4.25;;;;;;;12.32;100.00;101002.25;5062396;28;20029;-79
2022/10/02 09:08:51;;;;;;;11.60;2.63;;;;;;;12.34;100.00;100993.97;5060956;28;20031;-79
2022/10/02 09:11:38;;;;;;;11.32;2.90;;;;;;;12.53;100.00;101023.53;5064939;28;20024;-77
2022/10/02 09:14:42;;;;;;;15.48;3.47;;;;;;;12.77;100.00;101018.09;5061550;28;20009;-78
2022/10/02 09:17:31;;;;;;;22.02;3.95;;;;;;;13.02;100.00;101023.53;5057988;28;20028;-78
2022/10/02 09:20:15;;;;;;;23.23;4.32;;;;;;;13.17;100.00;101040.88;5061557;28;20112;-78
2022/10/02 09:23:20;;;;;;;15.70;3.42;;;;;;;13.00;100.00;101044.63;5063392;28;20504;-78
2022/10/02 09:25:52;;;;;;;26.40;4.72;;;;;;;13.03;100.00;101039.66;5064215;28;20059;-76
2022/10/02 09:28:48;;;;;;;23.48;3.80;;;;;;;13.12;100.00;101037.81;5062831;28;20024;-76
2022/10/02 09:31:17;;;;;;;25.63;4.70;;;;;;;13.10;100.00;101023.53;5060354;28;20020;-76
2022/10/02 09:34:02;;;;;;;19.58;3.75;;;;;;;13.17;100.00;101032.72;5066420;28;20550;-76
2022/10/02 09:36:52;;;;;;;23.65;4.07;;;;;;;13.06;100.00;101035.78;5064968;28;20051;-76
2022/10/02 09:39:48;;;;;;;25.80;4.97;;;;;;;13.27;100.00;101030.69;5058701;28;20147;-76
2022/10/02 09:42:47;;;;;;;25.48;4.57;;;;;;;13.28;100.00;101021.50;5061821;28;20025;-76
2022/10/02 09:45:54;;;;;;;23.85;4.22;;;;;;;13.44;100.00;101028.81;5063522;28;20473;-76
2022/10/02 09:48:53;;;;;;;39.08;4.80;;;;;;;13.84;100.00;101044.16;5064377;28;20028;-76
2022/10/02 09:51:48;;;;;;;19.10;3.88;;;;;;;13.93;100.00;101038.69;5059332;28;20503;-75
2022/10/02 09:54:41;;;;;;;21.10;4.28;;;;;;;13.84;100.00;101027.00;5051475;28;20029;-75
2022/10/02 09:57:33;;;;;;;21.02;4.45;;;;;;;13.60;100.00;101036.06;5057829;28;20024;-75
2022/10/02 10:00:11;;;;;;;21.42;3.45;;;;;;;13.83;100.00;101042.47;5058955;28;20096;-75
2022/10/02 10:02:42;;;;;;;17.98;4.50;;;;;;;13.70;100.00;101025.00;5056505;28;20028;-75
2022/10/02 10:05:08;;;;;;;;;;;;;;;14.01;100.00;101033.19;5063461;28;20082;-75
2022/10/02 10:07:55;;;;;;;18.60;2.85;;;;;;;13.99;98.18;101046.16;5062827;28;20028;-75
2022/10/02 10:11:00;;;;;;;11.02;2.65;;;;;;;13.99;98.72;101043.44;5055210;28;20029;-75
2022/10/02 10:13:42;;;;;;;12.52;3.20;;;;;;;14.24;99.55;101034.13;5063913;28;20031;-76
2022/10/02 10:16:29;;;;;;;14.32;3.13;;;;;;;14.25;96.34;101034.97;5077071;23;20044;-74
2022/10/02 10:19:28;;;;;;;12.88;2.50;;;;;;;14.38;94.71;101052.41;5057861;28;20020;-74
2022/10/02 10:22:22;;;;;;;16.13;2.80;;;;;;;14.22;95.76;101052.53;5062014;28;20035;-71
2022/10/02 10:24:50;;;;;;;18.17;3.40;;;;;;;14.29;96.62;101063.56;5078477;28;20032;-71
2022/10/02 10:27:53;;;;;;;14.90;2.70;;;;;;;14.28;96.80;101049.09;5061413;28;20031;-74
2022/10/02 10:30:50;;;;;;;13.65;2.60;;;;;;;14.74;94.96;101041.00;5056634;28;20064;-72
2022/10/02 10:33:34;;;;;;;10.52;2.30;;;;;;;14.70;92.95;101049.72;5056112;28;20016;-73
2022/10/02 10:39:46;;;;;;;14.23;2.10;;;;;;;14.74;91.19;101051.91;5076430;28;20099;-71
2022/10/02 10:42:38;;;;;;;12.52;2.83;;;;;;;14.89;91.13;101055.53;5065937;28;20020;-76
2022/10/02 10:45:22;;;;;;;17.15;2.90;;;;;;;15.05;89.31;101043.63;5080659;28;20096;-72
2022/10/02 10:48:26;;;;;;;20.35;2.72;;;;;;;15.04;88.99;101049.28;5070546;28;20078;-73
2022/10/02 10:51:15;;;;;;;15.88;3.30;;;;;;;15.18;89.56;101048.47;5085581;28;20028;-71
2022/10/02 10:54:14;;;;;;;19.23;3.13;;;;;;;15.09;90.28;101060.50;5079674;28;20481;-72
2022/10/02 10:56:43;;;;;;;15.00;3.03;;;;;;;15.22;90.46;101048.97;5075450;28;20051;-72
2022/10/02 10:59:27;;;;;;;10.32;2.67;;;;;;;15.99;87.58;101053.13;5070215;28;20022;-73
2022/10/02 11:02:14;;;;;;;18.58;3.35;;;;;;;15.85;86.14;101062.16;5058885;28;20031;-72
2022/10/02 11:04:46;;;;;;;27.58;4.22;;;;;;;15.74;86.63;101070.81;5078490;28;20092;-71
2022/10/02 11:07:18;;;;;;;22.75;3.50;;;;;;;15.71;86.65;101060.25;5091219;28;20092;-72
2022/10/02 11:09:52;;;;;;;20.15;2.92;;;;;;;15.73;86.42;101047.28;5082403;28;20028;-73
2022/10/02 11:12:40;;;;;;;30.05;4.30;;;;;;;15.78;86.17;101054.91;5074947;28;20044;-71
2022/10/02 11:15:26;;;;;;;18.83;3.17;;;;;;;15.77;87.35;101053.22;5071688;28;20031;-71
2022/10/02 11:18:06;;;;;;;21.05;3.88;;;;;;;15.65;88.34;101055.56;5061343;28;20081;-72
2022/10/02 11:20:49;;;;;;;25.75;3.80;;;;;;;15.60;87.25;101053.38;5059947;28;20499;-73
2022/10/02 11:23:39;;;;;;;24.60;4.32;;;;;;;15.52;87.07;101067.09;5054493;28;20016;-74
2022/10/02 11:26:25;;;;;;;34.28;4.53;;;;;;;15.84;87.87;101059.59;5056357;28;20082;-72
2022/10/02 11:29:09;;;;;;;19.35;4.32;;;;;;;15.70;87.01;101074.94;5082247;28;20052;-72
2022/10/02 11:32:13;;;;;;;29.75;3.95;;;;;;;15.75;82.14;101061.59;5075050;28;20021;-71
2022/10/02 11:34:45;;;;;;;16.70;3.58;;;;;;;16.02;82.81;101071.84;5061815;28;20020;-71
2022/10/02 11:37:30;;;;;;;27.98;3.65;;;;;;;15.73;81.30;101080.91;5059885;28;20025;-74
2022/10/02 11:40:13;;;;;;;28.40;4.97;;;;;;;15.71;81.31;101061.13;5068703;28;20032;-72
2022/10/02 11:43:14;;;;;;;25.65;3.45;;;;;;;15.84;81.99;101062.34;5064409;28;20021;-72
2022/10/02 11:46:35;;;;;;;20.48;3.60;;;;;;;15.70;83.11;101069.47;5066687;28;20032;-73
2022/10/02 11:49:09;;;;;;;35.35;5.57;;;;;;;15.49;85.30;101072.91;5046527;28;20111;-72
2022/10/02 11:51:54;;;;;;;21.67;4.38;;;;;;;15.45;84.78;101071.56;5063982;28;20025;-72
2022/10/02 11:54:43;;;;;;;23.17;3.80;;;;;;;15.18;87.68;101064.84;5069005;28;20024;-72
2022/10/02 11:57:28;;;;;;;22.85;4.43;;;;;;;15.18;90.15;101079.31;5079710;28;20047;-74
2022/10/02 12:00:12;;;;;;;32.97;3.65;;;;;;;14.81;91.99;101091.03;5066200;28;20020;-73
2022/10/02 12:03:00;;;;;;;34.00;4.65;;;;;;;14.87;95.63;101101.22;5063823;28;20048;-74
2022/10/02 12:05:41;;;;;;;42.42;5.40;;;;;;;14.66;97.11;101110.03;5064165;28;20027;-76
2022/10/02 12:08:15;;;;;;;35.05;5.00;;;;;;;14.37;100.00;101105.22;5067220;28;20048;-75
2022/10/02 12:11:05;;;;;;;29.60;4.60;;;;;;;14.04;100.00;101109.94;5068290;28;20390;-74
2022/10/02 12:13:42;;;;;;;33.17;6.60;;;;;;;13.78;100.00;101099.28;5066528;28;20115;-75
2022/10/02 12:16:18;;;;;;;20.77;3.33;;;;;;;13.64;100.00;101100.00;5061234;28;20027;-75
2022/10/02 12:18:49;;;;;;;20.45;3.13;;;;;;;13.84;99.71;101089.59;5079386;28;20484;-75